Latest Weather Observations for Mornington Island Airport

IDQ60801

Issued at 4:32 pm EST Monday 31 August 2015 (issued every 30 minutes, with the page automatically refreshed every 10 minutes)

About weather observations | Map of weather stations | Latest weather observations for QLD | Other Formats
Station Details ID: 029182 Name: MORNINGTON ISLAND AIRPORT Lat: -16.66 Lon: 139.17 Height: 9.0 m
Data from the previous 72 hours. | See also: Recent months at Mornington Island Airport
Date/Time
EST
Temp
°C
App
Temp
°C
Dew
Point
Rel
Hum
%
Delta-T
°C
Wind Press
QNH
hPa
Press
MSL
hPa
Rain
since 9 am
mm
Dir
 
Spd
km/h
Gust
km/h
Spd
kts
Gust
kts
31/04:30pm 30.0 25.0 1.5 16 14.0 SE 17 24 9 13 1013.3 1013.2 0.0
31/04:00pm 29.9 25.0 2.2 17 13.7 SE 17 24 9 13 1013.4 1013.3 0.0
31/03:30pm 29.3 24.4 4.0 20 12.9 SE 19 28 10 15 1013.7 1013.6 0.0
31/03:00pm 29.2 24.5 6.0 23 12.2 SE 20 30 11 16 1014.1 1014.0 0.0
31/02:30pm 29.3 25.1 8.4 27 11.5 SE 20 28 11 15 1014.5 1014.4 0.0
31/02:00pm 28.2 22.7 5.7 24 11.7 SE 24 33 13 18 1014.9 1014.8 0.0
31/01:30pm 28.0 23.9 10.2 33 10.0 SE 22 32 12 17 1015.4 1015.3 0.0
31/01:00pm 28.0 24.3 11.5 35 9.5 SE 22 30 12 16 1015.7 1015.6 0.0
31/12:30pm 27.7 24.7 12.5 39 8.9 SE 20 30 11 16 1016.2 1016.1 0.0
31/12:00pm 27.4 22.6 10.2 34 9.6 SE 26 35 14 19 1016.6 1016.5 0.0
31/11:30am 26.8 22.4 10.5 36 9.1 SE 24 37 13 20 1017.0 1016.9 0.0
31/11:00am 26.8 22.4 11.7 39 8.6 SE 26 35 14 19 1017.4 1017.3 0.0
31/10:30am 26.2 21.4 10.4 37 8.8 SE 26 39 14 21 1017.4 1017.3 0.0
31/10:00am 25.9 21.1 11.6 40 8.1 SE 28 39 15 21 1017.3 1017.2 0.0
31/09:30am 25.6 20.4 10.2 38 8.5 SE 28 39 15 21 1017.1 1017.0 0.0
31/09:00am 25.4 22.0 12.6 45 7.4 SE 22 32 12 17 1016.8 1016.7 0.0
31/08:30am 24.9 21.6 12.8 47 7.0 SE 22 30 12 16 1016.6 1016.5 0.0
31/08:00am 24.1 21.9 13.3 51 6.3 SE 17 28 9 15 1016.1 1016.0 0.0
31/07:30am 23.3 21.4 12.9 52 6.0 SE 15 22 8 12 1015.8 1015.7 0.0
31/07:00am 22.2 20.9 12.5 54 5.5 SSE 11 19 6 10 1015.5 1015.4 0.0
31/06:30am 21.8 20.5 12.4 55 5.3 SSE 11 17 6 9 1015.3 1015.2 0.0
31/06:00am 21.0 19.8 12.9 60 4.6 SSE 11 15 6 8 1014.9 1014.8 0.0
31/05:30am 20.5 20.0 13.7 65 3.9 S 9 11 5 6 1014.7 1014.6 0.0
31/05:00am 21.5 21.7 14.6 65 4.0 S 7 13 4 7 1014.7 1014.6 0.0
31/04:30am 21.9 21.6 14.3 62 4.4 SSW 9 13 5 7 1014.7 1014.6 0.0
31/04:00am 22.5 24.1 16.8 70 3.5 SW 4 9 2 5 1014.8 1014.7 0.0
31/03:30am 22.7 24.2 18.0 75 2.9 SW 7 9 4 5 1014.9 1014.8 0.0
31/03:00am 22.8 - - - - W 7 11 4 6 1015.1 1015.0 0.0
31/02:30am 22.7 25.1 20.0 85 1.7 WSW 7 9 4 5 1015.2 1015.1 0.0
31/02:00am 23.2 26.4 21.3 89 1.2 WSW 6 9 3 5 1015.2 1015.1 0.0
31/01:30am 22.7 25.6 21.0 90 1.1 WSW 7 9 4 5 1015.3 1015.2 0.0
31/01:00am 22.5 25.1 20.4 88 1.4 WSW 7 9 4 5 1015.5 1015.4 0.0
31/12:30am 22.9 25.4 21.0 89 1.2 W 9 11 5 6 1015.6 1015.5 0.0
31/12:00am 22.4 23.9 17.5 74 3.0 W 6 9 3 5 1015.5 1015.4 0.0
 
Date/Time
EST
Temp
°C
App
Temp
°C
Dew
Point
Rel
Hum
%
Delta-T
°C
Wind Press
QNH
hPa
Press
MSL
hPa
Rain
since 9 am
mm
Dir
 
Spd
km/h
Gust
km/h
Spd
kts
Gust
kts
30/11:30pm 22.1 21.8 11.5 51 5.9 SE 4 13 2 7 1015.5 1015.4 0.0
30/11:00pm 21.5 21.4 9.4 46 6.5 CALM 0 6 0 3 1015.5 1015.4 0.0
30/10:30pm 22.3 20.9 8.8 42 7.2 NNE 6 7 3 4 1015.5 1015.4 0.0
30/10:00pm 23.4 21.9 9.0 40 7.7 NE 7 9 4 5 1015.5 1015.4 0.0
30/09:30pm 23.8 21.3 8.2 37 8.3 NNE 11 13 6 7 1015.4 1015.3 0.0
30/09:00pm 24.1 21.5 7.7 35 8.6 NE 11 13 6 7 1015.2 1015.1 0.0
30/08:30pm 24.9 22.6 7.5 33 9.2 NE 9 11 5 6 1015.1 1015.0 0.0
30/08:00pm 26.1 24.0 9.9 36 9.0 ENE 11 13 6 7 1014.6 1014.5 0.0
30/07:30pm 27.0 24.1 8.0 30 10.2 SSE 13 20 7 11 1014.0 1013.9 0.0
30/07:00pm 26.9 25.1 9.3 33 9.7 SE 9 11 5 6 1014.1 1014.0 0.0
30/06:30pm 28.7 25.5 6.7 25 11.7 ESE 13 15 7 8 1014.0 1013.9 0.0
30/06:00pm 29.9 25.9 6.5 23 12.5 E 17 20 9 11 1013.9 1013.8 0.0
30/05:30pm 30.5 27.0 7.0 23 12.7 ESE 15 20 8 11 1013.8 1013.7 0.0
30/05:00pm 30.1 26.5 8.5 26 11.9 SE 17 22 9 12 1013.9 1013.8 0.0
30/04:30pm 30.2 26.0 7.4 24 12.4 SE 19 26 10 14 1014.0 1013.9 0.0
30/04:00pm 30.5 26.2 7.0 23 12.7 ESE 19 26 10 14 1014.2 1014.1 0.0
30/03:30pm 30.3 26.0 6.9 23 12.6 SE 19 28 10 15 1014.5 1014.4 0.0
30/03:00pm 30.7 26.5 8.4 25 12.3 ESE 20 28 11 15 1014.9 1014.8 0.0
30/02:30pm 29.7 26.2 8.7 27 11.6 SE 17 28 9 15 1015.4 1015.3 0.0
30/02:00pm 28.0 24.6 11.1 35 9.6 SSE 20 33 11 18 1015.9 1015.8 0.0
30/01:30pm 28.5 24.7 9.7 31 10.5 SSE 20 33 11 18 1016.2 1016.1 0.0
30/01:00pm 28.5 23.0 9.2 30 10.7 SE 28 41 15 22 1016.7 1016.6 0.0
30/12:30pm 28.7 24.0 9.4 30 10.7 SE 24 39 13 21 1017.1 1017.0 0.0
30/12:00pm 27.4 25.1 13.0 41 8.4 SE 17 26 9 14 1017.7 1017.6 0.0
30/11:30am 26.6 24.0 13.7 45 7.6 SSE 20 32 11 17 1018.0 1017.9 0.0
30/11:00am 26.5 24.1 14.3 47 7.3 SSE 20 33 11 18 1018.4 1018.3 0.0
30/10:30am 26.2 23.1 13.3 45 7.6 SSE 22 35 12 19 1018.5 1018.4 0.0
30/10:00am 26.0 22.6 11.4 40 8.3 SSE 20 33 11 18 1018.5 1018.4 0.0
30/09:30am 25.8 22.2 13.0 45 7.5 SE 24 33 13 18 1018.3 1018.2 0.0
30/09:00am 25.5 21.5 11.7 42 7.8 SE 24 39 13 21 1017.9 1017.8 0.0
30/08:30am 25.4 22.5 12.9 45 7.3 SSE 20 35 11 19 1017.7 1017.6 0.0
30/08:00am 24.9 22.5 13.8 50 6.5 SSE 19 33 10 18 1017.3 1017.2 0.0
30/07:30am 24.6 22.2 14.4 53 6.0 SSE 20 32 11 17 1016.8 1016.7 0.0
30/07:00am 24.3 21.9 14.4 54 5.9 SSE 20 33 11 18 1016.4 1016.3 0.0
30/06:30am 23.8 22.7 16.3 63 4.6 SSE 17 28 9 15 1016.1 1016.0 0.0
30/06:00am 23.0 22.5 16.8 68 3.8 SSE 15 24 8 13 1015.7 1015.6 0.0
30/05:30am 22.8 23.0 16.8 69 3.7 SSW 11 20 6 11 1015.3 1015.2 0.0
30/05:00am 22.8 24.4 19.2 80 2.3 SSW 9 15 5 8 1015.0 1014.9 0.0
30/04:30am 23.0 25.1 20.1 84 1.9 SW 9 15 5 8 1014.9 1014.8 0.0
30/04:00am 22.7 24.2 20.6 88 1.4 WSW 13 22 7 12 1015.0 1014.9 0.0
30/03:30am 22.7 24.1 21.0 90 1.1 WSW 15 26 8 14 1015.1 1015.0 0.0
30/03:00am 23.3 24.6 22.3 94 0.7 WSW 19 28 10 15 1015.0 1014.9 0.0
30/02:30am 23.2 25.3 22.5 96 0.5 W 15 19 8 10 1014.9 1014.8 0.0
30/02:00am 23.2 26.1 22.4 95 0.5 W 11 15 6 8 1015.1 1015.0 0.0
30/01:30am 23.2 26.1 22.4 95 0.5 W 11 15 6 8 1015.3 1015.2 0.0
30/01:00am 23.4 26.4 22.6 95 0.5 W 11 15 6 8 1015.7 1015.6 0.0
30/12:30am 23.2 26.1 22.4 95 0.5 WNW 11 13 6 7 1015.8 1015.7 0.0
30/12:00am 23.2 25.8 22.0 93 0.8 NW 11 13 6 7 1015.8 1015.7 0.0
 
Date/Time
EST
Temp
°C
App
Temp
°C
Dew
Point
Rel
Hum
%
Delta-T
°C
Wind Press
QNH
hPa
Press
MSL
hPa
Rain
since 9 am
mm
Dir
 
Spd
km/h
Gust
km/h
Spd
kts
Gust
kts
29/11:30pm 22.9 25.8 21.7 93 0.8 NW 9 9 5 5 1015.8 1015.7 0.0
29/11:00pm 22.8 25.9 21.4 92 0.9 N 7 9 4 5 1015.9 1015.8 0.0
29/10:30pm 23.2 26.5 21.8 92 0.9 N 7 9 4 5 1016.0 1015.9 0.0
29/10:00pm 23.2 26.4 21.6 91 1.1 N 7 11 4 6 1015.9 1015.8 0.0
29/09:30pm 23.4 26.2 21.5 89 1.3 NNE 9 13 5 7 1015.9 1015.8 0.0
29/09:00pm 23.5 25.7 21.2 87 1.5 NNE 11 15 6 8 1015.8 1015.7 0.0
29/08:30pm 23.7 25.8 21.0 85 1.8 NNE 11 17 6 9 1015.6 1015.5 0.0
29/08:00pm 24.1 25.7 20.8 82 2.2 NNE 13 20 7 11 1015.3 1015.2 0.0
29/07:30pm 24.5 25.5 20.2 77 2.8 NNE 15 19 8 10 1015.1 1015.0 0.0
29/07:00pm 24.7 25.9 20.0 75 3.0 NNE 13 20 7 11 1014.7 1014.6 0.0
29/06:30pm 25.4 25.7 18.8 67 4.2 NNE 15 19 8 10 1014.5 1014.4 0.0
29/06:00pm 26.4 26.7 18.8 63 4.9 N 15 17 8 9 1014.5 1014.4 0.0
29/05:30pm 26.8 26.9 18.4 60 5.3 NNW 15 20 8 11 1014.5 1014.4 0.0
29/05:00pm 27.2 27.1 17.9 56 5.9 NNW 15 20 8 11 1014.3 1014.2 0.0
29/04:30pm 27.7 27.7 19.0 59 5.6 NW 17 20 9 11 1014.2 1014.1 0.0
29/04:00pm 28.5 29.1 17.7 52 6.8 SSE 11 19 6 10 1014.4 1014.3 0.0
29/03:30pm 27.9 27.4 16.8 50 6.9 SSE 15 24 8 13 1014.6 1014.5 0.0
29/03:00pm 28.9 28.5 17.1 49 7.4 SSE 15 24 8 13 1014.9 1014.8 0.0
29/02:30pm 28.3 27.3 16.6 49 7.3 SSE 17 26 9 14 1015.4 1015.3 0.0
29/02:00pm 29.1 26.8 14.1 40 9.0 SE 19 24 10 13 1015.5 1015.4 0.0
29/01:30pm 29.3 27.2 14.7 41 8.9 SE 19 26 10 14 1015.9 1015.8 0.0
29/01:00pm 28.5 25.7 14.3 41 8.5 SE 22 30 12 16 1016.6 1016.5 0.0
29/12:30pm 28.2 25.1 14.4 42 8.3 SE 24 32 13 17 1017.1 1017.0 0.0
29/12:00pm 29.2 25.6 13.0 37 9.6 ESE 24 35 13 19 1017.3 1017.2 0.0
29/11:30am 29.3 24.8 12.7 36 9.8 ESE 28 39 15 21 1017.5 1017.4 0.0
29/11:00am 28.0 23.9 13.9 42 8.4 SE 28 37 15 20 1017.9 1017.8 0.0
29/10:30am 27.9 23.8 13.8 42 8.4 SE 28 37 15 20 1018.0 1017.9 0.0
29/10:00am 26.9 22.3 13.6 44 7.8 SE 30 41 16 22 1018.1 1018.0 0.0
29/09:30am 26.6 22.6 14.0 46 7.5 SE 28 41 15 22 1018.3 1018.2 0.0
29/09:00am 25.9 22.9 14.7 50 6.7 SE 24 35 13 19 1018.0 1017.9 0.0
29/08:30am 25.8 23.8 15.5 53 6.2 SE 20 35 11 19 1017.5 1017.4 0.0
29/08:00am 25.0 22.4 14.8 53 6.1 SE 22 32 12 17 1017.2 1017.1 0.0
29/07:30am 24.2 22.1 14.6 55 5.7 SE 19 28 10 15 1017.0 1016.9 0.0
29/07:00am 23.8 21.9 15.3 59 5.1 SE 19 30 10 16 1016.9 1016.8 0.0
29/06:30am 23.7 21.8 15.2 59 5.1 SE 19 28 10 15 1016.7 1016.6 0.0
29/06:00am 23.7 22.1 14.9 57 5.2 SSE 17 24 9 13 1016.4 1016.3 0.0
29/05:30am 23.4 22.7 15.5 61 4.7 SSE 13 20 7 11 1016.2 1016.1 0.0
29/05:00am 22.8 23.1 15.9 65 4.2 SSE 9 15 5 8 1016.1 1016.0 0.0
29/04:30am 21.8 22.5 17.0 74 2.9 SSE 9 13 5 7 1016.0 1015.9 0.0
29/04:00am 21.7 23.0 17.5 77 2.6 S 7 11 4 6 1016.3 1016.2 0.0
29/03:30am 22.5 23.4 17.6 74 3.0 SSW 9 13 5 7 1016.2 1016.1 0.0
29/03:00am 22.8 24.6 18.8 78 2.5 SSW 7 11 4 6 1016.2 1016.1 0.0
29/02:30am 23.0 25.4 20.1 84 1.9 SW 7 11 4 6 1016.4 1016.3 0.0
29/02:00am 23.5 25.8 21.4 88 1.4 WSW 11 20 6 11 1016.7 1016.6 0.0
29/01:30am 23.3 25.5 21.2 88 1.4 WSW 11 19 6 10 1016.8 1016.7 0.0
29/01:00am 23.1 25.0 21.4 90 1.1 SW 13 20 7 11 1017.1 1017.0 0.0
29/12:30am 23.5 25.9 22.3 93 0.8 WSW 13 24 7 13 1017.2 1017.1 0.0
29/12:00am 23.2 25.6 21.6 91 1.1 WSW 11 13 6 7 1017.0 1016.9 0.0
 
Date/Time
EST
Temp
°C
App
Temp
°C
Dew
Point
Rel
Hum
%
Delta-T
°C
Wind Press
QNH
hPa
Press
MSL
hPa
Rain
since 9 am
mm
Dir
 
Spd
km/h
Gust
km/h
Spd
kts
Gust
kts
28/11:30pm 22.7 25.6 21.0 90 1.1 WNW 7 11 4 6 1017.1 1017.0 0.0
28/11:00pm 22.2 24.9 20.3 89 1.2 NNW 6 6 3 3 1017.1 1017.0 0.0
28/10:30pm 22.5 24.3 18.7 79 2.4 N 7 9 4 5 1017.0 1016.9 0.0
28/10:00pm 22.8 25.5 20.7 88 1.4 NNW 7 9 4 5 1016.8 1016.7 0.0
28/09:30pm 23.0 25.6 20.5 86 1.6 NNW 7 9 4 5 1016.7 1016.6 0.0
28/09:00pm 23.1 25.2 20.2 84 1.9 N 9 11 5 6 1016.6 1016.5 0.0
28/08:30pm 23.4 25.6 20.3 83 2.0 N 9 11 5 6 1016.3 1016.2 0.0
28/08:00pm 23.6 25.8 20.3 82 2.1 N 9 13 5 7 1016.1 1016.0 0.0
28/07:30pm 23.9 26.4 20.2 80 2.4 N 7 13 4 7 1015.8 1015.7 0.0
28/07:00pm 24.3 26.2 19.8 76 2.9 NNE 9 11 5 6 1015.5 1015.4 0.0
28/06:30pm 25.0 26.2 19.1 70 3.8 N 11 13 6 7 1015.1 1015.0 0.0
28/06:00pm 26.0 27.6 19.9 69 4.0 N 11 15 6 8 1014.8 1014.7 0.0
28/05:30pm 25.9 27.0 20.5 72 3.5 NW 15 19 8 10 1014.7 1014.6 0.0
28/05:00pm 26.9 29.3 20.0 66 4.5 E 7 13 4 7 1014.7 1014.6 0.0

Other Formats:

Comma delimited format used in spreadsheet applications
http://www.bom.gov.au/fwo/IDQ60801/IDQ60801.94254.axf

JavaScript Object Notation format (JSON) in row-major order
http://www.bom.gov.au/fwo/IDQ60801/IDQ60801.94254.json